Time;durP1;ratioP1;P1;durP2;ratioP2;P2;SDS_P1;SDS_P2;PMS_P1;PMS_P2;Temp;Humidity;BMP_temperature;BMP_pressure;BME280_temperature;BME280_humidity;BME280_pressure;Samples;Min_cycle;Max_cycle;Signal;HPM_P1;HPM_P2
2022/07/01 00:00:24;;;;;;;;;;;22.20;99.90;;;;;;5033098;28;19913;-72
2022/07/01 00:02:50;;;;;;;;;;;22.20;99.90;;;;;;5051148;28;19920;-72
2022/07/01 00:05:15;;;;;;;;;;;22.10;99.90;;;;;;5050933;28;19939;-72
2022/07/01 00:07:41;;;;;;;;;;;22.10;99.90;;;;;;5033301;28;19917;-72
2022/07/01 00:10:07;;;;;;;;;;;22.10;99.90;;;;;;5051119;28;20263;-72
2022/07/01 00:12:32;;;;;;;;;;;22.10;99.90;;;;;;5050829;28;19919;-72
2022/07/01 00:14:58;;;;;;;;;;;22.00;99.90;;;;;;5051059;28;20357;-72
2022/07/01 00:17:23;;;;;;;;;;;22.00;99.90;;;;;;5032994;28;20292;-72
2022/07/01 00:19:50;;;;;;;;;;;22.00;99.90;;;;;;5051048;28;19913;-72
2022/07/01 00:22:16;;;;;;;;;;;22.00;99.90;;;;;;5050828;28;20333;-72
2022/07/01 00:24:41;;;;;;;;;;;22.00;99.90;;;;;;5050876;28;19924;-71
2022/07/01 00:27:07;;;;;;;;;;;21.90;99.90;;;;;;5050894;28;20273;-72
2022/07/01 00:29:33;;;;;;;;;;;21.80;99.90;;;;;;5051078;28;19917;-72
2022/07/01 00:31:59;;;;;;;;;;;21.80;99.90;;;;;;5050854;28;19935;-72
2022/07/01 00:34:24;;;;;;;;;;;21.80;99.90;;;;;;5050757;28;20003;-71
2022/07/01 00:36:50;;;;;;;;;;;21.80;99.90;;;;;;5050605;28;20376;-71
2022/07/01 00:39:15;;;;;;;;;;;21.80;99.90;;;;;;5034841;28;19913;-72
2022/07/01 00:41:41;;;;;;;;;;;21.80;99.90;;;;;;5054712;28;19920;-72
2022/07/01 00:44:15;;;;;;;;;;;21.80;99.90;;;;;;5036711;28;19928;-72
2022/07/01 00:46:40;;;;;;;;;;;21.90;99.90;;;;;;5054668;28;20376;-72
2022/07/01 00:49:06;;;;;;;;;;;21.70;99.90;;;;;;5054775;28;19913;-72
2022/07/01 00:51:31;;;;;;;;;;;21.80;99.90;;;;;;5054553;28;19966;-73
2022/07/01 00:53:58;;;;;;;;;;;21.80;99.90;;;;;;5054735;28;19913;-71
2022/07/01 00:56:24;;;;;;;;;;;21.80;99.90;;;;;;5054382;28;19913;-72
2022/07/01 00:58:50;;;;;;;;;;;21.80;99.90;;;;;;5054242;28;19923;-72
2022/07/01 01:01:15;;;;;;;;;;;21.80;99.90;;;;;;5054294;28;20262;-72
2022/07/01 01:03:41;;;;;;;;;;;21.70;99.90;;;;;;5054550;28;19920;-71
2022/07/01 01:06:08;;;;;;;;;;;21.80;99.90;;;;;;5054196;28;20011;-72
2022/07/01 01:08:34;;;;;;;;;;;21.70;99.90;;;;;;5054347;28;20160;-72
2022/07/01 01:10:59;;;;;;;;;;;21.70;99.90;;;;;;5054295;28;19927;-72
2022/07/01 01:13:25;;;;;;;;;;;21.60;99.90;;;;;;5036264;28;19920;-72
2022/07/01 01:15:50;;;;;;;;;;;21.60;99.90;;;;;;5054130;28;20339;-72
2022/07/01 01:18:16;;;;;;;;;;;21.60;99.90;;;;;;5053932;28;19917;-71
2022/07/01 01:20:41;;;;;;;;;;;21.60;99.90;;;;;;5053948;28;20008;-71
2022/07/01 01:23:07;;;;;;;;;;;21.70;99.90;;;;;;5035701;28;20011;-72
2022/07/01 01:25:32;;;;;;;;;;;21.60;99.90;;;;;;5053809;28;20353;-71
2022/07/01 01:27:58;;;;;;;;;;;21.70;99.90;;;;;;5053966;28;19913;-72
2022/07/01 01:30:24;;;;;;;;;;;21.70;99.90;;;;;;5053677;28;19923;-72
2022/07/01 01:32:49;;;;;;;;;;;21.70;99.90;;;;;;5054190;28;19923;-72
2022/07/01 01:35:15;;;;;;;;;;;21.80;99.90;;;;;;5054190;28;19920;-72
2022/07/01 01:37:41;;;;;;;;;;;21.70;99.90;;;;;;5053656;28;20475;-71
2022/07/01 01:40:06;;;;;;;;;;;21.80;99.90;;;;;;5053564;28;19920;-71
2022/07/01 01:42:32;;;;;;;;;;;21.80;99.90;;;;;;5053935;28;19948;-72
2022/07/01 01:44:58;;;;;;;;;;;21.70;99.90;;;;;;5035372;28;19917;-72
2022/07/01 01:47:23;;;;;;;;;;;21.70;99.90;;;;;;5053449;28;19956;-71
2022/07/01 01:49:49;;;;;;;;;;;21.70;99.90;;;;;;5052786;28;19916;-71
2022/07/01 01:52:14;;;;;;;;;;;21.70;99.90;;;;;;5052885;28;20003;-72
2022/07/01 01:54:40;;;;;;;;;;;21.60;99.90;;;;;;5053290;28;20331;-71
2022/07/01 01:57:06;;;;;;;;;;;21.70;99.90;;;;;;5035354;28;19999;-71
2022/07/01 01:59:31;;;;;;;;;;;21.70;99.90;;;;;;5053326;28;19943;-72
2022/07/01 02:01:57;;;;;;;;;;;21.60;99.90;;;;;;5053131;28;19912;-71
2022/07/01 02:04:25;;;;;;;;;;;21.60;99.90;;;;;;5053441;28;19963;-71
2022/07/01 02:06:51;;;;;;;;;;;21.70;99.90;;;;;;5053110;28;19921;-71
2022/07/01 02:09:16;;;;;;;;;;;21.70;99.90;;;;;;5053341;28;19962;-71
2022/07/01 02:11:42;;;;;;;;;;;21.70;99.90;;;;;;5035133;28;19920;-71
2022/07/01 02:14:07;;;;;;;;;;;21.80;99.90;;;;;;5035000;28;20063;-71
2022/07/01 02:16:33;;;;;;;;;;;21.90;99.90;;;;;;5018328;28;19920;-71
2022/07/01 02:18:58;;;;;;;;;;;21.90;99.90;;;;;;5053169;28;19920;-71
2022/07/01 02:21:24;;;;;;;;;;;22.00;99.90;;;;;;5035017;28;19955;-71
2022/07/01 02:23:51;;;;;;;;;;;21.90;99.90;;;;;;5052998;28;20411;-72
2022/07/01 02:26:17;;;;;;;;;;;21.90;99.90;;;;;;5052872;28;19912;-71
2022/07/01 02:28:42;;;;;;;;;;;21.90;99.90;;;;;;5052948;28;20257;-71
2022/07/01 02:31:08;;;;;;;;;;;21.80;99.90;;;;;;5061420;28;19920;-72
2022/07/01 02:33:33;;;;;;;;;;;21.80;99.90;;;;;;5052898;28;19960;-72
2022/07/01 02:35:59;;;;;;;;;;;21.70;99.90;;;;;;5034598;28;19913;-72
2022/07/01 02:38:24;;;;;;;;;;;21.60;99.90;;;;;;5052218;28;20455;-71
2022/07/01 02:40:50;;;;;;;;;;;21.50;99.90;;;;;;5052362;28;20316;-72
2022/07/01 02:43:16;;;;;;;;;;;21.50;99.90;;;;;;5052548;28;19916;-72
2022/07/01 02:45:41;;;;;;;;;;;21.40;99.90;;;;;;5052586;28;19913;-72
2022/07/01 02:48:07;;;;;;;;;;;21.40;99.90;;;;;;5052439;28;20024;-72
2022/07/01 02:50:32;;;;;;;;;;;21.40;99.90;;;;;;5052334;28;20331;-71
2022/07/01 02:52:58;;;;;;;;;;;21.50;99.90;;;;;;5052649;28;19920;-71
2022/07/01 02:55:23;;;;;;;;;;;21.40;99.90;;;;;;5034191;28;20365;-71
2022/07/01 02:57:51;;;;;;;;;;;21.30;99.90;;;;;;5052407;28;20018;-71
2022/07/01 03:00:17;;;;;;;;;;;21.30;99.90;;;;;;5051943;28;20008;-71
2022/07/01 03:02:43;;;;;;;;;;;21.30;99.90;;;;;;5034132;28;19912;-71
2022/07/01 03:05:10;;;;;;;;;;;21.40;99.90;;;;;;5033759;28;19917;-71
2022/07/01 03:07:36;;;;;;;;;;;21.40;99.90;;;;;;5052106;28;19962;-72
2022/07/01 03:10:02;;;;;;;;;;;21.40;99.90;;;;;;5051813;28;20296;-71
2022/07/01 03:12:28;;;;;;;;;;;21.50;99.90;;;;;;5051755;28;19967;-71
2022/07/01 03:14:56;;;;;;;;;;;21.50;99.90;;;;;;5051764;28;19920;-71
2022/07/01 03:17:22;;;;;;;;;;;21.60;99.90;;;;;;5051802;28;19909;-72
2022/07/01 03:19:48;;;;;;;;;;;21.60;99.90;;;;;;5051911;28;19916;-72
2022/07/01 03:22:14;;;;;;;;;;;21.60;99.90;;;;;;5051732;28;20288;-72
2022/07/01 03:24:39;;;;;;;;;;;21.70;99.90;;;;;;5051416;28;19921;-72
2022/07/01 03:27:05;;;;;;;;;;;21.70;99.90;;;;;;5051677;28;19919;-70
2022/07/01 03:29:30;;;;;;;;;;;21.80;99.90;;;;;;5033779;28;19912;-70
2022/07/01 03:31:56;;;;;;;;;;;21.80;99.90;;;;;;5033474;28;19913;-70
2022/07/01 03:34:22;;;;;;;;;;;21.80;99.90;;;;;;5051334;28;20455;-72
2022/07/01 03:36:47;;;;;;;;;;;21.80;99.90;;;;;;5029926;28;19925;-72
2022/07/01 03:39:13;;;;;;;;;;;21.80;99.90;;;;;;5032066;28;20341;-71
2022/07/01 03:41:38;;;;;;;;;;;21.80;99.90;;;;;;5031388;28;19955;-71
2022/07/01 03:44:05;;;;;;;;;;;21.80;99.90;;;;;;5031796;28;19917;-71
2022/07/01 03:46:31;;;;;;;;;;;21.90;99.90;;;;;;5031373;28;19975;-71
2022/07/01 03:48:57;;;;;;;;;;;21.90;99.90;;;;;;5031751;28;20412;-71
2022/07/01 03:51:22;;;;;;;;;;;21.90;99.90;;;;;;5031312;28;19913;-71
2022/07/01 03:56:32;;;;;;;;;;;21.90;99.90;;;;;;5031627;28;19967;-71
2022/07/01 03:58:57;;;;;;;;;;;21.90;99.90;;;;;;5031701;28;20320;-71
2022/07/01 04:01:23;;;;;;;;;;;22.00;99.90;;;;;;5031235;28;19924;-71
2022/07/01 04:03:48;;;;;;;;;;;22.00;99.90;;;;;;5029755;28;20011;-71
2022/07/01 04:06:14;;;;;;;;;;;22.10;99.90;;;;;;5029756;28;19967;-71
2022/07/01 04:08:39;;;;;;;;;;;22.10;99.90;;;;;;5029982;28;19913;-71
2022/07/01 04:11:08;;;;;;;;;;;22.10;99.90;;;;;;5031138;28;19963;-71
2022/07/01 04:13:34;;;;;;;;;;;22.10;99.90;;;;;;5032335;28;19939;-71
2022/07/01 04:16:00;;;;;;;;;;;22.10;99.90;;;;;;5035204;28;20126;-71
2022/07/01 04:18:25;;;;;;;;;;;22.20;99.90;;;;;;5035179;28;20365;-72
2022/07/01 04:23:37;;;;;;;;;;;22.40;99.90;;;;;;5035514;28;20266;-72
2022/07/01 04:26:02;;;;;;;;;;;22.60;99.90;;;;;;5034882;28;20427;-72
2022/07/01 04:28:28;;;;;;;;;;;22.70;99.90;;;;;;5035397;28;19909;-71
2022/07/01 04:30:53;;;;;;;;;;;22.80;99.90;;;;;;5034906;28;20408;-72
2022/07/01 04:33:19;;;;;;;;;;;22.90;99.90;;;;;;5034925;28;19913;-72
2022/07/01 04:35:45;;;;;;;;;;;23.00;99.90;;;;;;5034793;28;20359;-71
2022/07/01 04:38:10;;;;;;;;;;;23.10;99.90;;;;;;5052476;28;19932;-72
2022/07/01 04:40:36;;;;;;;;;;;23.10;99.90;;;;;;5055062;28;19913;-72
2022/07/01 04:43:01;;;;;;;;;;;23.10;99.90;;;;;;5054875;28;20669;-72
2022/07/01 04:45:27;;;;;;;;;;;23.00;99.90;;;;;;5054607;28;20046;-72
2022/07/01 04:47:52;;;;;;;;;;;22.90;99.90;;;;;;5054863;28;20267;-72
2022/07/01 04:50:18;;;;;;;;;;;22.90;99.90;;;;;;5054597;28;20340;-72
2022/07/01 04:52:43;;;;;;;;;;;22.80;99.90;;;;;;5054418;28;19919;-72
2022/07/01 04:55:08;;;;;;;;;;;22.70;99.90;;;;;;5036687;28;19913;-72
2022/07/01 04:57:34;;;;;;;;;;;22.70;99.90;;;;;;5036653;28;19912;-71
2022/07/01 04:59:59;;;;;;;;;;;22.70;99.90;;;;;;5054827;28;19980;-73
2022/07/01 05:02:25;;;;;;;;;;;22.80;99.90;;;;;;5054443;28;19916;-72
2022/07/01 05:04:50;;;;;;;;;;;22.80;99.90;;;;;;5054322;28;20019;-71
2022/07/01 05:07:28;;;;;;;;;;;22.90;99.90;;;;;;5054045;28;19932;-71
2022/07/01 05:09:56;;;;;;;;;;;23.10;99.90;;;;;;5054416;28;19922;-71
2022/07/01 05:12:22;;;;;;;;;;;23.10;99.90;;;;;;5054177;28;20060;-71
2022/07/01 05:14:48;;;;;;;;;;;23.30;99.90;;;;;;5054217;28;19912;-72
2022/07/01 05:17:13;;;;;;;;;;;23.40;99.90;;;;;;5054034;28;19919;-72
2022/07/01 05:22:23;;;;;;;;;;;23.60;99.90;;;;;;5054021;28;20244;-72
2022/07/01 05:24:48;;;;;;;;;;;23.60;99.90;;;;;;5052866;28;19916;-72
2022/07/01 05:27:14;;;;;;;;;;;23.60;99.90;;;;;;5035444;28;19912;-71
2022/07/01 05:29:39;;;;;;;;;;;23.60;99.90;;;;;;5053786;28;19913;-72
2022/07/01 05:32:05;;;;;;;;;;;23.60;99.90;;;;;;5053654;28;19909;-71
2022/07/01 05:34:31;;;;;;;;;;;23.60;99.90;;;;;;5054378;28;19917;-71
2022/07/01 05:36:56;;;;;;;;;;;23.70;99.90;;;;;;5035455;28;20288;-73
2022/07/01 05:39:22;;;;;;;;;;;23.70;99.90;;;;;;5054154;28;20003;-72
2022/07/01 05:41:48;;;;;;;;;;;23.60;99.90;;;;;;5053493;28;19962;-72
2022/07/01 05:44:13;;;;;;;;;;;23.60;99.90;;;;;;5053497;28;20317;-72
2022/07/01 05:46:39;;;;;;;;;;;23.60;99.90;;;;;;5053389;28;19920;-72
2022/07/01 05:49:04;;;;;;;;;;;23.60;99.90;;;;;;5035524;28;19971;-72
2022/07/01 05:51:30;;;;;;;;;;;23.70;99.90;;;;;;5053825;28;20266;-72
2022/07/01 05:53:56;;;;;;;;;;;23.60;99.90;;;;;;5053757;28;19966;-71
2022/07/01 05:56:22;;;;;;;;;;;23.60;99.90;;;;;;5035360;28;20221;-72
2022/07/01 05:58:47;;;;;;;;;;;23.60;99.90;;;;;;5053414;28;19924;-72
2022/07/01 06:01:13;;;;;;;;;;;23.60;99.90;;;;;;5053565;28;19913;-71
2022/07/01 06:03:39;;;;;;;;;;;23.60;99.90;;;;;;5035279;28;19916;-72
2022/07/01 06:06:04;;;;;;;;;;;23.70;99.90;;;;;;5053067;28;20065;-72
2022/07/01 06:08:30;;;;;;;;;;;23.80;99.90;;;;;;5053276;28;19964;-72
2022/07/01 06:10:56;;;;;;;;;;;23.90;99.90;;;;;;5053126;28;20273;-72
2022/07/01 06:13:21;;;;;;;;;;;24.10;99.90;;;;;;5052851;28;20345;-72
2022/07/01 06:15:46;;;;;;;;;;;24.20;99.90;;;;;;5053036;28;20412;-72
2022/07/01 06:18:12;;;;;;;;;;;24.30;99.90;;;;;;5052978;28;20007;-72
2022/07/01 06:20:37;;;;;;;;;;;24.30;99.90;;;;;;5034797;28;19924;-71
2022/07/01 06:23:03;;;;;;;;;;;24.40;99.90;;;;;;5053015;28;20009;-72
2022/07/01 06:25:28;;;;;;;;;;;24.50;99.90;;;;;;5052734;28;20401;-72
2022/07/01 06:27:54;;;;;;;;;;;24.60;99.90;;;;;;5052940;28;19920;-71
2022/07/01 06:30:19;;;;;;;;;;;24.50;99.90;;;;;;5052631;28;19921;-71
2022/07/01 06:32:45;;;;;;;;;;;24.50;99.90;;;;;;5052407;28;19913;-71
2022/07/01 06:35:10;;;;;;;;;;;24.60;99.90;;;;;;5052546;28;19916;-71
2022/07/01 06:37:36;;;;;;;;;;;24.60;99.90;;;;;;5052143;28;19929;-71
2022/07/01 06:40:05;;;;;;;;;;;24.50;99.90;;;;;;5052925;28;19913;-71
2022/07/01 06:42:31;;;;;;;;;;;24.60;99.90;;;;;;5052516;28;19936;-71
2022/07/01 06:44:56;;;;;;;;;;;24.80;99.90;;;;;;5034576;28;20357;-72
2022/07/01 06:47:22;;;;;;;;;;;24.90;99.90;;;;;;5052570;28;19947;-72
2022/07/01 06:49:48;;;;;;;;;;;25.00;99.90;;;;;;5034518;28;20323;-72
2022/07/01 06:52:13;;;;;;;;;;;25.10;99.90;;;;;;5052642;28;20297;-71
2022/07/01 06:54:39;;;;;;;;;;;25.20;99.90;;;;;;5052453;28;20392;-72
2022/07/01 06:57:05;;;;;;;;;;;25.40;99.90;;;;;;5052370;28;20276;-72
2022/07/01 06:59:31;;;;;;;;;;;25.50;99.90;;;;;;5052519;28;19917;-72
2022/07/01 07:01:56;;;;;;;;;;;25.70;99.90;;;;;;5052245;28;19913;-72
2022/07/01 07:04:22;;;;;;;;;;;25.90;99.90;;;;;;5052479;28;19923;-72
2022/07/01 07:06:47;;;;;;;;;;;26.00;99.90;;;;;;5052073;28;19913;-72
2022/07/01 07:09:13;;;;;;;;;;;26.10;99.90;;;;;;5052214;28;19920;-72
2022/07/01 07:11:38;;;;;;;;;;;26.30;99.90;;;;;;5051926;28;19913;-72
2022/07/01 07:14:03;;;;;;;;;;;26.40;99.90;;;;;;5052211;28;19920;-72
2022/07/01 07:16:29;;;;;;;;;;;26.60;99.90;;;;;;5051817;28;19996;-70
2022/07/01 07:18:54;;;;;;;;;;;26.60;99.90;;;;;;5033820;28;19935;-70
2022/07/01 07:21:20;;;;;;;;;;;26.70;99.90;;;;;;5055683;28;19920;-70
2022/07/01 07:23:45;;;;;;;;;;;26.70;99.90;;;;;;5062759;28;20012;-70
2022/07/01 07:26:11;;;;;;;;;;;26.80;99.90;;;;;;5059214;28;20390;-70
2022/07/01 07:28:36;;;;;;;;;;;26.90;99.90;;;;;;5051731;28;20007;-71
2022/07/01 07:31:02;;;;;;;;;;;26.90;99.90;;;;;;5068299;28;19962;-70
2022/07/01 07:33:28;;;;;;;;;;;26.80;99.90;;;;;;5071475;28;19954;-71
2022/07/01 07:35:53;;;;;;;;;;;26.60;99.90;;;;;;5071591;28;20378;-70
2022/07/01 07:38:19;;;;;;;;;;;26.50;99.90;;;;;;5071518;28;19931;-70
2022/07/01 07:40:44;;;;;;;;;;;26.40;99.90;;;;;;5071447;28;20292;-71
2022/07/01 07:43:10;;;;;;;;;;;26.60;99.90;;;;;;5071719;28;20399;-70
2022/07/01 07:45:35;;;;;;;;;;;26.90;99.90;;;;;;5071259;28;19968;-69
2022/07/01 07:48:02;;;;;;;;;;;27.00;99.90;;;;;;5052782;28;19913;-71
2022/07/01 07:50:27;;;;;;;;;;;26.90;99.90;;;;;;5071158;28;19916;-70
2022/07/01 07:52:53;;;;;;;;;;;26.80;99.90;;;;;;5071097;28;20314;-69
2022/07/01 07:55:18;;;;;;;;;;;26.60;99.90;;;;;;5064897;28;19920;-71
2022/07/01 07:57:44;;;;;;;;;;;26.60;99.90;;;;;;5051193;28;19913;-71
2022/07/01 08:00:11;;;;;;;;;;;26.90;99.90;;;;;;5051336;28;19913;-72
2022/07/01 08:02:37;;;;;;;;;;;27.30;99.90;;;;;;5051021;28;19951;-71
2022/07/01 08:05:03;;;;;;;;;;;27.70;99.90;;;;;;5050958;28;19959;-71
2022/07/01 08:07:29;;;;;;;;;;;27.90;99.90;;;;;;5051008;28;20445;-71
2022/07/01 08:09:55;;;;;;;;;;;28.00;99.90;;;;;;5050668;28;19916;-71
2022/07/01 08:12:21;;;;;;;;;;;28.20;99.90;;;;;;5051059;28;19909;-71
2022/07/01 08:14:47;;;;;;;;;;;28.40;99.90;;;;;;5050787;28;19920;-69
2022/07/01 08:17:12;;;;;;;;;;;28.60;99.90;;;;;;5050885;28;19909;-70
2022/07/01 08:19:38;;;;;;;;;;;28.80;99.90;;;;;;5051155;28;19950;-71
2022/07/01 08:22:03;;;;;;;;;;;28.80;99.90;;;;;;5058464;28;19962;-71
2022/07/01 08:24:29;;;;;;;;;;;28.70;99.90;;;;;;5070702;28;19916;-71
2022/07/01 08:26:54;;;;;;;;;;;28.20;99.90;;;;;;5071282;28;19917;-71
2022/07/01 08:29:20;;;;;;;;;;;29.10;99.90;;;;;;5066019;28;19955;-71
2022/07/01 08:31:45;;;;;;;;;;;29.20;99.90;;;;;;5051247;28;20257;-70
2022/07/01 08:34:11;;;;;;;;;;;29.10;99.90;;;;;;5051464;28;19939;-71
2022/07/01 08:36:36;;;;;;;;;;;29.20;99.90;;;;;;5051162;28;19928;-71
2022/07/01 08:39:02;;;;;;;;;;;29.40;99.90;;;;;;5051680;28;20003;-71
2022/07/01 08:41:28;;;;;;;;;;;29.60;99.90;;;;;;5051218;28;20388;-71
2022/07/01 08:43:53;;;;;;;;;;;29.40;99.90;;;;;;5051418;28;19917;-71
2022/07/01 08:46:21;;;;;;;;;;;29.90;99.90;;;;;;5050892;28;19913;-71
2022/07/01 08:48:46;;;;;;;;;;;29.90;99.40;;;;;;5051044;28;19916;-71
2022/07/01 08:51:12;;;;;;;;;;;30.10;99.60;;;;;;5050883;28;20027;-71
2022/07/01 08:53:37;;;;;;;;;;;30.10;98.80;;;;;;5032971;28;19913;-71
2022/07/01 08:58:51;;;;;;;;;;;30.40;97.10;;;;;;5091727;28;20009;-71
2022/07/01 09:01:20;;;;;;;;;;;30.60;96.80;;;;;;5094319;28;19919;-71
2022/07/01 09:03:47;;;;;;;;;;;30.60;96.90;;;;;;5094876;28;20259;-71
2022/07/01 09:06:14;;;;;;;;;;;30.70;97.30;;;;;;5094534;28;20340;-71
2022/07/01 09:08:40;;;;;;;;;;;30.80;96.80;;;;;;5082651;28;19958;-70
2022/07/01 09:11:16;;;;;;;;;;;30.90;96.90;;;;;;5059119;28;19948;-71
2022/07/01 09:13:42;;;;;;;;;;;31.00;96.30;;;;;;5059620;28;19991;-71
2022/07/01 09:16:11;;;;;;;;;;;31.30;95.90;;;;;;5057477;28;19935;-71
2022/07/01 09:18:37;;;;;;;;;;;31.50;95.40;;;;;;5054164;28;19920;-72
2022/07/01 09:21:07;;;;;;;;;;;31.70;95.50;;;;;;5056384;28;20015;-70
2022/07/01 09:23:33;;;;;;;;;;;31.90;95.60;;;;;;5073529;28;19995;-71
2022/07/01 09:25:58;;;;;;;;;;;32.00;94.70;;;;;;5073784;28;20011;-69
2022/07/01 09:28:25;;;;;;;;;;;32.20;94.90;;;;;;5055479;28;19926;-70
2022/07/01 09:30:57;;;;;;;;;;;32.30;95.10;;;;;;5073162;28;19920;-72
2022/07/01 09:33:24;;;;;;;;;;;32.40;94.90;;;;;;5047226;28;20003;-70
2022/07/01 09:35:50;;;;;;;;;;;32.40;94.30;;;;;;5051455;28;20011;-70
2022/07/01 09:38:16;;;;;;;;;;;32.20;94.30;;;;;;5055478;28;20415;-70
2022/07/01 09:40:51;;;;;;;;;;;32.10;93.40;;;;;;5058736;28;19955;-70
2022/07/01 09:43:16;;;;;;;;;;;31.90;93.80;;;;;;5035991;28;20144;-69
2022/07/01 09:45:52;;;;;;;;;;;31.90;93.20;;;;;;5052731;28;20376;-70
2022/07/01 09:48:18;;;;;;;;;;;31.90;88.50;;;;;;5052731;28;19913;-70
2022/07/01 09:50:44;;;;;;;;;;;31.80;91.60;;;;;;5065325;28;20439;-70
2022/07/01 09:53:10;;;;;;;;;;;31.90;92.40;;;;;;5056245;28;19921;-70
2022/07/01 09:55:36;;;;;;;;;;;32.00;92.70;;;;;;5065145;28;19999;-71
2022/07/01 09:58:01;;;;;;;;;;;32.00;91.60;;;;;;5053499;28;19924;-70
2022/07/01 10:00:29;;;;;;;;;;;32.00;91.80;;;;;;5058066;28;19924;-66
2022/07/01 10:02:56;;;;;;;;;;;32.10;92.10;;;;;;5055647;28;20356;-69
2022/07/01 10:05:23;;;;;;;;;;;32.20;92.10;;;;;;5061248;28;19935;-70
2022/07/01 10:08:07;;;;;;;;;;;32.20;91.50;;;;;;5070071;28;19956;-70
2022/07/01 10:10:45;;;;;;;;;;;32.20;91.10;;;;;;5072808;28;19931;-70
2022/07/01 10:13:13;;;;;;;;;;;32.40;90.70;;;;;;5072604;28;19999;-70
2022/07/01 10:15:43;;;;;;;;;;;32.40;90.30;;;;;;5072697;28;19932;-69
2022/07/01 10:18:25;;;;;;;;;;;32.40;90.30;;;;;;5062882;28;19913;-70
2022/07/01 10:20:51;;;;;;;;;;;32.50;90.40;;;;;;5051573;28;19932;-70
2022/07/01 10:23:19;;;;;;;;;;;32.50;90.40;;;;;;5067984;28;19913;-70
2022/07/01 10:25:46;;;;;;;;;;;32.70;90.20;;;;;;5072686;28;20399;-70
2022/07/01 10:28:18;;;;;;;;;;;32.80;89.40;;;;;;5057299;28;19921;-70
2022/07/01 10:30:54;;;;;;;;;;;32.90;87.40;;;;;;5069572;28;20306;-70
2022/07/01 10:33:38;;;;;;;;;;;32.80;85.90;;;;;;5058592;28;19913;-70
2022/07/01 10:36:17;;;;;;;;;;;33.00;84.40;;;;;;5054947;28;19923;-70
2022/07/01 10:39:08;;;;;;;;;;;33.30;83.10;;;;;;5051958;28;20423;-71
2022/07/01 10:41:34;;;;;;;;;;;33.40;81.90;;;;;;5054731;28;19967;-70
2022/07/01 10:44:05;;;;;;;;;;;33.50;83.10;;;;;;5051908;28;19923;-71
2022/07/01 10:46:44;;;;;;;;;;;33.70;82.80;;;;;;5053446;28;19936;-71
2022/07/01 10:49:13;;;;;;;;;;;33.90;82.40;;;;;;5084260;28;20408;-71
2022/07/01 10:51:49;;;;;;;;;;;34.30;82.30;;;;;;5059848;28;19916;-71
2022/07/01 10:54:33;;;;;;;;;;;34.10;83.00;;;;;;5060049;28;19920;-70
2022/07/01 10:57:22;;;;;;;;;;;34.00;82.00;;;;;;5065315;28;19917;-70
2022/07/01 10:59:53;;;;;;;;;;;34.20;82.20;;;;;;5051506;28;19923;-70
2022/07/01 11:02:26;;;;;;;;;;;34.30;81.20;;;;;;5068854;28;19912;-70
2022/07/01 11:04:53;;;;;;;;;;;34.10;80.30;;;;;;5055548;28;20299;-70
2022/07/01 11:07:18;;;;;;;;;;;34.30;79.30;;;;;;5057593;28;19985;-70
2022/07/01 11:09:44;;;;;;;;;;;34.30;79.30;;;;;;5072165;28;19916;-70
2022/07/01 11:12:10;;;;;;;;;;;34.40;77.80;;;;;;5071631;28;19908;-71
2022/07/01 11:14:39;;;;;;;;;;;34.20;77.80;;;;;;5071840;28;20507;-71
2022/07/01 11:17:05;;;;;;;;;;;34.10;77.60;;;;;;5054084;28;19916;-71
2022/07/01 11:19:30;;;;;;;;;;;34.30;77.40;;;;;;5072430;28;19917;-71
2022/07/01 11:21:56;;;;;;;;;;;34.50;77.60;;;;;;5066993;28;19919;-71
2022/07/01 11:24:22;;;;;;;;;;;34.60;77.30;;;;;;5052575;28;19924;-71
2022/07/01 11:26:47;;;;;;;;;;;34.60;77.40;;;;;;5052375;28;19921;-70
2022/07/01 11:29:14;;;;;;;;;;;34.70;77.00;;;;;;5056268;28;19970;-71
2022/07/01 11:31:39;;;;;;;;;;;34.70;72.20;;;;;;5060138;28;19917;-71
2022/07/01 11:34:05;;;;;;;;;;;34.60;73.10;;;;;;5049733;28;19935;-71
2022/07/01 11:39:22;;;;;;;;;;;34.40;73.70;;;;;;5054720;28;19939;-70
2022/07/01 11:41:51;;;;;;;;;;;34.30;74.30;;;;;;5049541;28;19929;-70
2022/07/01 11:44:27;;;;;;;;;;;34.10;73.80;;;;;;5063400;28;19946;-70
2022/07/01 11:46:52;;;;;;;;;;;34.00;73.80;;;;;;5062275;28;20332;-69
2022/07/01 11:49:23;;;;;;;;;;;34.10;73.70;;;;;;5054938;28;19913;-69
2022/07/01 11:51:59;;;;;;;;;;;34.10;73.40;;;;;;5060347;28;19920;-69
2022/07/01 11:54:24;;;;;;;;;;;34.20;73.00;;;;;;5058273;28;19917;-69
2022/07/01 11:56:50;;;;;;;;;;;34.10;73.40;;;;;;5059676;28;20387;-69
2022/07/01 11:59:16;;;;;;;;;;;34.10;72.70;;;;;;5053953;28;19917;-70
2022/07/01 12:01:42;;;;;;;;;;;34.00;72.50;;;;;;5060767;28;19942;-69
2022/07/01 12:04:08;;;;;;;;;;;33.90;73.10;;;;;;5048656;28;19920;-69
2022/07/01 12:06:35;;;;;;;;;;;33.90;73.20;;;;;;5055381;28;19916;-70
2022/07/01 12:09:01;;;;;;;;;;;33.50;73.60;;;;;;5074476;28;19944;-70
2022/07/01 12:11:27;;;;;;;;;;;33.40;73.80;;;;;;5057132;28;20432;-69
2022/07/01 12:13:53;;;;;;;;;;;33.10;73.80;;;;;;5058209;28;19916;-69
2022/07/01 12:16:19;;;;;;;;;;;33.00;73.90;;;;;;5059402;28;20335;-69
2022/07/01 12:19:00;;;;;;;;;;;33.00;74.00;;;;;;5050313;28;19913;-70
2022/07/01 12:21:26;;;;;;;;;;;33.20;74.30;;;;;;5053674;28;20351;-69
2022/07/01 12:24:02;;;;;;;;;;;33.40;74.20;;;;;;5050022;28;19924;-69
2022/07/01 12:26:27;;;;;;;;;;;33.30;74.00;;;;;;5053034;28;19924;-69
2022/07/01 12:28:54;;;;;;;;;;;33.00;73.90;;;;;;5061655;28;20011;-70
2022/07/01 12:31:19;;;;;;;;;;;32.80;74.50;;;;;;5057529;28;19920;-69
2022/07/01 12:33:49;;;;;;;;;;;32.60;74.20;;;;;;5059024;28;20015;-70
2022/07/01 12:36:15;;;;;;;;;;;32.30;74.40;;;;;;5052617;28;19919;-70
2022/07/01 12:38:41;;;;;;;;;;;32.00;74.90;;;;;;5062596;28;19917;-70
2022/07/01 12:41:25;;;;;;;;;;;31.60;75.90;;;;;;5058736;28;20463;-70
2022/07/01 12:43:51;;;;;;;;;;;31.40;76.50;;;;;;5057798;28;20336;-70
2022/07/01 12:46:26;;;;;;;;;;;31.40;76.20;;;;;;5063698;28;19967;-69
2022/07/01 12:48:51;;;;;;;;;;;31.40;75.90;;;;;;5071636;28;20007;-69
2022/07/01 12:51:17;;;;;;;;;;;31.40;75.70;;;;;;5058370;28;20000;-70
2022/07/01 12:53:43;;;;;;;;;;;31.20;75.30;;;;;;5061457;28;19913;-70
2022/07/01 12:56:21;;;;;;;;;;;31.10;75.30;;;;;;5053064;28;20283;-70
2022/07/01 12:58:46;;;;;;;;;;;31.00;76.10;;;;;;5067875;28;19912;-69
2022/07/01 13:01:12;;;;;;;;;;;30.80;77.30;;;;;;5065504;28;19970;-70
2022/07/01 13:03:37;;;;;;;;;;;30.70;77.90;;;;;;5052307;28;20279;-70
2022/07/01 13:06:03;;;;;;;;;;;30.60;77.50;;;;;;5064103;28;20513;-70
2022/07/01 13:08:28;;;;;;;;;;;30.40;78.10;;;;;;5051230;28;19916;-69
2022/07/01 13:10:54;;;;;;;;;;;30.40;78.20;;;;;;5053628;28;19944;-70
2022/07/01 13:13:20;;;;;;;;;;;30.30;78.10;;;;;;5072962;28;19961;-67
2022/07/01 13:15:45;;;;;;;;;;;30.20;78.10;;;;;;5067810;28;19925;-68
2022/07/01 13:18:14;;;;;;;;;;;30.20;78.80;;;;;;5057111;28;20507;-66
2022/07/01 13:20:40;;;;;;;;;;;30.20;78.10;;;;;;5060473;28;19916;-66
2022/07/01 13:23:05;;;;;;;;;;;30.30;78.50;;;;;;5039993;28;19912;-68
2022/07/01 13:25:31;;;;;;;;;;;30.30;78.10;;;;;;5053293;28;19947;-68
2022/07/01 13:27:57;;;;;;;;;;;30.30;77.70;;;;;;5056640;28;19913;-67
2022/07/01 13:30:22;;;;;;;;;;;30.30;77.50;;;;;;5057503;28;20306;-68
2022/07/01 13:32:52;;;;;;;;;;;30.30;77.30;;;;;;5071203;28;19919;-67
2022/07/01 13:35:18;;;;;;;;;;;30.10;78.10;;;;;;5071362;28;20486;-67
2022/07/01 13:37:43;;;;;;;;;;;30.10;78.50;;;;;;5074272;28;20265;-67
2022/07/01 13:40:10;;;;;;;;;;;30.00;77.80;;;;;;5066241;28;19975;-68
2022/07/01 13:42:35;;;;;;;;;;;30.00;79.30;;;;;;5053563;28;19990;-68
2022/07/01 13:45:01;;;;;;;;;;;29.90;78.90;;;;;;5056082;28;19932;-69
2022/07/01 13:47:27;;;;;;;;;;;29.90;78.80;;;;;;5058412;28;19941;-67
2022/07/01 13:49:53;;;;;;;;;;;29.90;79.20;;;;;;5073863;28;19924;-69
2022/07/01 13:52:18;;;;;;;;;;;29.80;79.20;;;;;;5039896;28;19913;-68
2022/07/01 13:54:44;;;;;;;;;;;29.70;79.80;;;;;;5050359;28;19927;-68
2022/07/01 13:57:09;;;;;;;;;;;29.60;79.80;;;;;;5053403;28;20364;-67
2022/07/01 13:59:35;;;;;;;;;;;29.60;79.40;;;;;;5063781;28;19920;-68
2022/07/01 14:02:00;;;;;;;;;;;29.60;79.20;;;;;;5068752;28;20000;-67
2022/07/01 14:04:26;;;;;;;;;;;29.60;78.70;;;;;;5061046;28;20304;-68
2022/07/01 14:06:51;;;;;;;;;;;29.40;79.50;;;;;;5063892;28;19921;-67
2022/07/01 14:09:17;;;;;;;;;;;29.40;79.70;;;;;;5065230;28;20004;-68
2022/07/01 14:11:42;;;;;;;;;;;29.30;79.20;;;;;;5053212;28;20059;-68
2022/07/01 14:14:08;;;;;;;;;;;29.30;79.90;;;;;;5053625;28;19920;-68
2022/07/01 14:16:33;;;;;;;;;;;29.10;80.20;;;;;;5055938;28;19924;-70
2022/07/01 14:18:59;;;;;;;;;;;29.10;80.40;;;;;;5063277;28;19916;-77
2022/07/01 14:21:25;;;;;;;;;;;29.10;79.40;;;;;;5042170;28;19917;-73
2022/07/01 14:23:50;;;;;;;;;;;29.10;79.40;;;;;;5048302;28;19952;-73
2022/07/01 14:26:16;;;;;;;;;;;29.10;77.90;;;;;;5049185;28;20052;-73